createdAt,value
2024-03-01T00:02:04.107Z,99491.34
2024-03-01T00:04:30.561Z,99482.06
2024-03-01T00:06:57.006Z,99476.50
2024-03-01T00:09:23.432Z,99484.31
2024-03-01T00:11:49.838Z,99477.50
2024-03-01T00:14:16.223Z,99486.59
2024-03-01T00:16:42.608Z,99483.28
2024-03-01T00:19:09.415Z,99484.53
2024-03-01T00:21:36.350Z,99478.16
2024-03-01T00:24:02.702Z,99466.19
2024-03-01T00:26:29.070Z,99462.66
2024-03-01T00:28:55.406Z,99451.53
2024-03-01T00:31:21.863Z,99449.22
2024-03-01T00:33:48.269Z,99447.19
2024-03-01T00:36:14.614Z,99444.72
2024-03-01T00:38:40.970Z,99443.28
2024-03-01T00:41:07.333Z,99435.63
2024-03-01T00:43:34.757Z,99431.09
2024-03-01T00:46:01.349Z,99425.72
2024-03-01T00:48:27.746Z,99434.78
2024-03-01T00:50:54.186Z,99439.75
2024-03-01T00:53:20.577Z,99434.59
2024-03-01T00:55:46.963Z,99436.25
2024-03-01T00:58:13.389Z,99441.41
2024-03-01T01:00:39.884Z,99444.94
2024-03-01T01:03:06.336Z,99443.25
2024-03-01T01:05:33.014Z,99443.69
2024-03-01T01:07:59.422Z,99441.19
2024-03-01T01:10:25.806Z,99431.91
2024-03-01T01:12:52.236Z,99436.25
2024-03-01T01:15:18.608Z,99437.72
2024-03-01T01:17:45.301Z,99430.28
2024-03-01T01:20:12.378Z,99425.53
2024-03-01T01:22:39.067Z,99419.53
2024-03-01T01:25:07.357Z,99412.75
2024-03-01T01:27:33.745Z,99419.16
2024-03-01T01:30:00.122Z,99410.91
2024-03-01T01:32:26.521Z,99406.16
2024-03-01T01:34:53.006Z,99393.19
2024-03-01T01:37:19.398Z,99380.78
2024-03-01T01:39:45.811Z,99385.31
2024-03-01T01:42:12.145Z,99383.25
2024-03-01T01:44:38.480Z,99378.94
2024-03-01T01:47:04.922Z,99388.00
2024-03-01T01:49:31.533Z,99380.78
2024-03-01T01:51:59.735Z,99386.75
2024-03-01T01:54:26.693Z,99394.00
2024-03-01T01:56:53.436Z,99385.31
2024-03-01T01:59:19.842Z,99394.59
2024-03-01T02:01:46.449Z,99393.53
2024-03-01T02:04:12.890Z,99404.66
2024-03-01T02:06:39.341Z,99392.06
2024-03-01T02:09:13.686Z,99388.72
2024-03-01T02:11:41.576Z,99388.72
2024-03-01T02:14:10.431Z,99384.97
2024-03-01T02:16:37.256Z,99389.91
2024-03-01T02:19:13.717Z,99388.03
2024-03-01T02:21:48.202Z,99379.53
2024-03-01T02:24:15.093Z,99371.69
2024-03-01T02:26:41.441Z,99376.44
2024-03-01T02:29:07.832Z,99371.75
2024-03-01T02:31:34.235Z,99368.66
2024-03-01T02:34:00.985Z,99369.06
2024-03-01T02:36:27.676Z,99370.53
2024-03-01T02:38:54.057Z,99368.28
2024-03-01T02:41:20.441Z,99371.38
2024-03-01T02:43:46.813Z,99372.03
2024-03-01T02:46:13.183Z,99371.88
2024-03-01T02:48:39.768Z,99379.72
2024-03-01T02:51:06.154Z,99388.97
2024-03-01T02:53:32.496Z,99397.66
2024-03-01T02:55:58.924Z,99392.47
2024-03-01T02:58:25.371Z,99389.78
2024-03-01T03:00:51.828Z,99385.25
2024-03-01T03:03:18.276Z,99379.88
2024-03-01T03:05:45.233Z,99372.88
2024-03-01T03:08:11.588Z,99380.31
2024-03-01T03:10:38.194Z,99373.72
2024-03-01T03:13:07.090Z,99373.13
2024-03-01T03:15:33.522Z,99362.63
2024-03-01T03:17:59.944Z,99360.75
2024-03-01T03:20:26.418Z,99377.09
2024-03-01T03:22:52.769Z,99370.09
2024-03-01T03:25:19.223Z,99381.25
2024-03-01T03:27:45.603Z,99372.59
2024-03-01T03:30:12.376Z,99362.69
2024-03-01T03:32:38.982Z,99369.03
2024-03-01T03:35:05.977Z,99374.84
2024-03-01T03:37:33.293Z,99381.44
2024-03-01T03:39:59.987Z,99381.63
2024-03-01T03:42:26.357Z,99383.25
2024-03-01T03:44:52.725Z,99384.91
2024-03-01T03:47:19.072Z,99374.81
2024-03-01T03:49:48.972Z,99369.84
2024-03-01T03:52:15.862Z,99381.22
2024-03-01T03:54:42.275Z,99382.50
2024-03-01T03:57:08.648Z,99377.13
2024-03-01T03:59:35.042Z,99377.56
2024-03-01T04:02:01.619Z,99379.81
2024-03-01T04:04:28.200Z,99376.31
2024-03-01T04:06:54.647Z,99376.94
2024-03-01T04:09:21.043Z,99380.88
2024-03-01T04:11:47.419Z,99377.19
2024-03-01T04:14:13.967Z,99380.66
2024-03-01T04:16:40.374Z,99376.13
2024-03-01T04:19:10.106Z,99386.03
2024-03-01T04:21:38.169Z,99375.94
2024-03-01T04:24:13.169Z,99374.47
2024-03-01T04:26:40.235Z,99379.84
2024-03-01T04:29:07.003Z,99384.81
2024-03-01T04:31:33.440Z,99386.03
2024-03-01T04:33:59.804Z,99381.94
2024-03-01T04:36:26.160Z,99381.50
2024-03-01T04:38:52.568Z,99373.66
2024-03-01T04:41:22.483Z,99379.44
2024-03-01T04:43:48.848Z,99386.00
2024-03-01T04:46:15.319Z,99380.63
2024-03-01T04:48:41.771Z,99382.44
2024-03-01T04:51:13.611Z,99386.34
2024-03-01T04:53:40.670Z,99389.00
2024-03-01T04:56:10.178Z,99389.19
2024-03-01T04:58:37.374Z,99383.78
2024-03-01T05:01:04.224Z,99381.31
2024-03-01T05:03:30.864Z,99383.56
2024-03-01T05:05:57.815Z,99392.44
2024-03-01T05:08:25.272Z,99394.34
2024-03-01T05:10:52.195Z,99388.78
2024-03-01T05:13:19.855Z,99385.50
2024-03-01T05:15:47.156Z,99392.91
2024-03-01T05:18:13.834Z,99394.16
2024-03-01T05:20:40.388Z,99388.00
2024-03-01T05:23:07.024Z,99396.03
2024-03-01T05:25:33.464Z,99409.59
2024-03-01T05:28:00.472Z,99406.28
2024-03-01T05:30:37.472Z,99413.88
2024-03-01T05:33:13.933Z,99417.59
2024-03-01T05:35:40.631Z,99422.13
2024-03-01T05:38:07.060Z,99430.56
2024-03-01T05:40:39.521Z,99422.78
2024-03-01T05:43:10.502Z,99418.88
2024-03-01T05:45:37.076Z,99422.56
2024-03-01T05:48:04.410Z,99418.88
2024-03-01T05:50:30.807Z,99423.00
2024-03-01T05:52:57.207Z,99429.59
2024-03-01T05:55:25.289Z,99427.34
2024-03-01T05:57:51.762Z,99431.09
2024-03-01T06:00:27.341Z,99425.16
2024-03-01T06:02:58.085Z,99427.84
2024-03-01T06:05:25.106Z,99428.25
2024-03-01T06:07:51.554Z,99430.31
2024-03-01T06:10:18.458Z,99433.41
2024-03-01T06:12:44.904Z,99432.75
2024-03-01T06:15:11.698Z,99437.72
2024-03-01T06:17:38.145Z,99433.97
2024-03-01T06:20:04.752Z,99438.50
2024-03-01T06:22:31.849Z,99440.56
2024-03-01T06:24:58.465Z,99442.38
2024-03-01T06:27:24.977Z,99434.72
2024-03-01T06:29:51.505Z,99437.59
2024-03-01T06:32:17.940Z,99442.75
2024-03-01T06:34:44.354Z,99441.91
2024-03-01T06:37:10.762Z,99438.59
2024-03-01T06:39:37.220Z,99445.59
2024-03-01T06:42:04.706Z,99451.94
2024-03-01T06:44:31.060Z,99459.59
2024-03-01T06:46:57.545Z,99464.91
2024-03-01T06:49:23.975Z,99462.19
2024-03-01T06:51:50.438Z,99463.00
2024-03-01T06:54:16.881Z,99456.97
2024-03-01T06:56:43.986Z,99469.75
2024-03-01T06:59:10.754Z,99467.66
2024-03-01T07:01:38.951Z,99458.97
2024-03-01T07:04:05.700Z,99470.34
2024-03-01T07:06:32.835Z,99472.13
2024-03-01T07:08:59.245Z,99468.19
2024-03-01T07:11:26.819Z,99463.84
2024-03-01T07:13:53.566Z,99473.56
2024-03-01T07:16:20.279Z,99481.78
2024-03-01T07:18:46.640Z,99483.44
2024-03-01T07:21:13.026Z,99486.75
2024-03-01T07:23:39.436Z,99492.31
2024-03-01T07:26:07.390Z,99491.69
2024-03-01T07:28:34.267Z,99483.00
2024-03-01T07:31:00.910Z,99481.97
2024-03-01T07:33:27.705Z,99489.63
2024-03-01T07:35:54.192Z,99486.94
2024-03-01T07:38:20.615Z,99490.03
2024-03-01T07:40:47.045Z,99485.28
2024-03-01T07:43:13.527Z,99494.16
2024-03-01T07:45:40.420Z,99487.28
2024-03-01T07:48:07.013Z,99494.88
2024-03-01T07:50:33.412Z,99492.78
2024-03-01T07:53:00.129Z,99492.50
2024-03-01T07:55:26.480Z,99488.31
2024-03-01T07:57:52.866Z,99490.59
2024-03-01T08:00:19.703Z,99499.84
2024-03-01T08:02:46.213Z,99491.13
2024-03-01T08:05:12.645Z,99498.53
2024-03-01T08:07:39.319Z,99499.13
2024-03-01T08:10:09.449Z,99505.28
2024-03-01T08:12:35.820Z,99505.44
2024-03-01T08:15:08.750Z,99515.75
2024-03-01T08:17:35.234Z,99508.13
2024-03-01T08:20:06.287Z,99501.63
2024-03-01T08:22:32.754Z,99499.84
2024-03-01T08:24:59.249Z,99503.97
2024-03-01T08:27:29.791Z,99506.06
2024-03-01T08:29:57.631Z,99516.94
2024-03-01T08:32:37.897Z,99519.25
2024-03-01T08:35:04.548Z,99528.09
2024-03-01T08:37:32.402Z,99528.75
2024-03-01T08:39:58.996Z,99529.38
2024-03-01T08:42:26.040Z,99536.75
2024-03-01T08:45:00.887Z,99548.38
2024-03-01T08:47:28.959Z,99546.25
2024-03-01T08:49:57.233Z,99551.31
2024-03-01T08:52:26.714Z,99554.34
2024-03-01T08:54:56.883Z,99554.09
2024-03-01T08:57:27.890Z,99552.66
2024-03-01T08:59:54.253Z,99553.75
2024-03-01T09:02:56.512Z,99552.97
2024-03-01T09:05:23.095Z,99560.00
2024-03-01T09:07:52.620Z,99559.03
2024-03-01T09:10:30.077Z,99557.84
2024-03-01T09:12:57.025Z,99555.63
2024-03-01T09:15:25.104Z,99551.31
2024-03-01T09:17:53.015Z,99563.75
2024-03-01T09:20:35.461Z,99561.31
2024-03-01T09:23:05.885Z,99562.78
2024-03-01T09:25:46.571Z,99568.34
2024-03-01T09:28:13.793Z,99574.97
2024-03-01T09:30:40.647Z,99568.34
2024-03-01T09:33:11.213Z,99575.16
2024-03-01T09:35:38.595Z,99576.44
2024-03-01T09:38:06.170Z,99578.09
2024-03-01T09:40:35.356Z,99578.28
2024-03-01T09:43:31.463Z,99583.81
2024-03-01T09:46:22.767Z,99578.84
2024-03-01T09:49:01.159Z,99584.00
2024-03-01T09:51:34.368Z,99576.06
2024-03-01T09:54:18.999Z,99578.09
2024-03-01T09:56:45.513Z,99567.88
2024-03-01T09:59:24.398Z,99573.06
2024-03-01T10:02:05.494Z,99568.53
2024-03-01T10:05:24.467Z,99562.38
2024-03-01T10:07:59.309Z,99555.34
2024-03-01T10:10:48.037Z,99552.81
2024-03-01T10:13:34.550Z,99551.47
2024-03-01T10:16:26.194Z,99555.59
2024-03-01T10:19:11.552Z,99554.75
2024-03-01T10:22:13.142Z,99556.78
2024-03-01T10:25:01.489Z,99557.81
2024-03-01T10:27:35.579Z,99568.50
2024-03-01T10:30:12.189Z,99566.94
2024-03-01T10:33:04.821Z,99572.09
2024-03-01T10:36:03.377Z,99573.59
2024-03-01T10:39:04.204Z,99564.53
2024-03-01T10:41:42.327Z,99554.84
2024-03-01T10:44:15.943Z,99563.34
2024-03-01T10:47:19.154Z,99574.09
2024-03-01T10:50:02.190Z,99559.63
2024-03-01T10:52:48.977Z,99570.00
2024-03-01T10:55:22.847Z,99565.06
2024-03-01T10:58:16.529Z,99566.72
2024-03-01T11:00:51.695Z,99574.38
2024-03-01T11:03:43.508Z,99564.72
2024-03-01T11:06:22.140Z,99568.06
2024-03-01T11:08:56.456Z,99584.94
2024-03-01T11:11:35.216Z,99582.50
2024-03-01T11:14:04.953Z,99578.88
2024-03-01T11:16:35.088Z,99570.16
2024-03-01T11:19:07.406Z,99567.44
2024-03-01T11:21:36.774Z,99572.34
2024-03-01T11:24:05.260Z,99563.38
2024-03-01T11:26:43.921Z,99569.59
2024-03-01T11:29:22.036Z,99569.06
2024-03-01T11:31:54.049Z,99569.22
2024-03-01T11:34:35.253Z,99565.91
2024-03-01T11:37:48.338Z,99565.84
2024-03-01T11:40:37.561Z,99562.97
2024-03-01T11:43:38.769Z,99563.19
2024-03-01T11:46:32.830Z,99560.19
2024-03-01T11:49:28.807Z,99565.66
2024-03-01T11:52:30.263Z,99547.47
2024-03-01T11:55:07.197Z,99553.44
2024-03-01T11:58:04.920Z,99552.19
2024-03-01T12:00:36.970Z,99550.31
2024-03-01T12:03:12.453Z,99538.03
2024-03-01T12:06:03.360Z,99546.00
2024-03-01T12:08:55.079Z,99542.53
2024-03-01T12:11:36.293Z,99528.41
2024-03-01T12:14:05.768Z,99511.19
2024-03-01T12:16:46.768Z,99506.25
2024-03-01T12:19:36.983Z,99504.13
2024-03-01T12:22:40.788Z,99488.78
2024-03-01T12:25:07.248Z,99475.78
2024-03-01T12:28:16.755Z,99478.84
2024-03-01T12:31:08.679Z,99485.88
2024-03-01T12:34:07.028Z,99498.44
2024-03-01T12:36:48.334Z,99505.13
2024-03-01T12:39:21.804Z,99500.31
2024-03-01T12:42:35.299Z,99516.72
2024-03-01T12:45:13.853Z,99509.81
2024-03-01T12:47:55.383Z,99509.00
2024-03-01T12:50:31.508Z,99502.44
2024-03-01T12:53:13.072Z,99495.13
2024-03-01T12:55:48.824Z,99497.84
2024-03-01T12:58:29.692Z,99499.00
2024-03-01T13:01:03.783Z,99503.22
2024-03-01T13:03:48.970Z,99498.78
2024-03-01T13:06:17.357Z,99502.41
2024-03-01T13:08:54.967Z,99496.19
2024-03-01T13:11:23.533Z,99491.84
2024-03-01T13:14:02.974Z,99484.34
2024-03-01T13:16:29.359Z,99495.41
2024-03-01T13:19:20.936Z,99495.72
2024-03-01T13:22:10.133Z,99490.44
2024-03-01T13:25:03.830Z,99486.44
2024-03-01T13:27:37.847Z,99496.03
2024-03-01T13:30:20.205Z,99492.91
2024-03-01T13:33:00.045Z,99496.19
2024-03-01T13:35:27.366Z,99494.19
2024-03-01T13:38:01.771Z,99497.69
2024-03-01T13:40:31.700Z,99495.69
2024-03-01T13:43:08.614Z,99500.31
2024-03-01T13:45:37.860Z,99500.09
2024-03-01T13:48:13.277Z,99493.19
2024-03-01T13:50:42.825Z,99496.97
2024-03-01T13:53:14.779Z,99490.94
2024-03-01T13:55:42.534Z,99496.09
2024-03-01T13:58:10.101Z,99493.41
2024-03-01T14:00:36.954Z,99484.66
2024-03-01T14:03:07.730Z,99479.78
2024-03-01T14:05:34.093Z,99484.25
2024-03-01T14:08:04.132Z,99477.28
2024-03-01T14:10:30.657Z,99476.25
2024-03-01T14:12:57.583Z,99478.03
2024-03-01T14:15:24.138Z,99459.88
2024-03-01T14:17:53.741Z,99466.16
2024-03-01T14:20:20.485Z,99459.69
2024-03-01T14:22:52.499Z,99454.16
2024-03-01T14:25:19.384Z,99451.06
2024-03-01T14:27:52.023Z,99449.03
2024-03-01T14:30:20.337Z,99450.38
2024-03-01T14:32:52.037Z,99451.13
2024-03-01T14:35:24.416Z,99450.63
2024-03-01T14:37:52.582Z,99434.50
2024-03-01T14:40:19.809Z,99421.28
2024-03-01T14:42:58.715Z,99421.53
2024-03-01T14:45:25.249Z,99419.97
2024-03-01T14:47:58.697Z,99414.56
2024-03-01T14:50:27.614Z,99427.63
2024-03-01T14:53:01.279Z,99426.44
2024-03-01T14:55:28.204Z,99417.25
2024-03-01T14:57:55.428Z,99405.38
2024-03-01T15:00:24.919Z,99405.88
2024-03-01T15:02:54.883Z,99407.59
2024-03-01T15:05:25.097Z,99407.69
2024-03-01T15:07:52.434Z,99397.53
2024-03-01T15:10:26.932Z,99396.31
2024-03-01T15:12:55.328Z,99377.81
2024-03-01T15:15:22.186Z,99388.47
2024-03-01T15:18:08.799Z,99388.50
2024-03-01T15:20:35.151Z,99379.25
2024-03-01T15:23:02.628Z,99390.22
2024-03-01T15:25:29.198Z,99386.91
2024-03-01T15:27:59.015Z,99374.78
2024-03-01T15:30:29.373Z,99385.50
2024-03-01T15:32:56.479Z,99385.88
2024-03-01T15:35:23.820Z,99381.59
2024-03-01T15:37:50.379Z,99385.13
2024-03-01T15:40:18.220Z,99397.59
2024-03-01T15:42:44.573Z,99397.84
2024-03-01T15:45:11.810Z,99397.09
2024-03-01T15:47:38.227Z,99390.50
2024-03-01T15:50:05.743Z,99390.09
2024-03-01T15:52:32.421Z,99387.97
2024-03-01T15:54:58.916Z,99389.84
2024-03-01T15:57:25.404Z,99398.41
2024-03-01T15:59:51.825Z,99391.41
2024-03-01T16:02:21.023Z,99393.88
2024-03-01T16:04:47.918Z,99396.44
2024-03-01T16:07:14.472Z,99390.81
2024-03-01T16:09:40.856Z,99393.06
2024-03-01T16:12:09.704Z,99405.16
2024-03-01T16:14:39.933Z,99406.69
2024-03-01T16:17:09.870Z,99405.16
2024-03-01T16:19:39.024Z,99403.16
2024-03-01T16:22:06.419Z,99393.66
2024-03-01T16:24:33.525Z,99392.75
2024-03-01T16:27:03.743Z,99389.59
2024-03-01T16:29:35.566Z,99395.69
2024-03-01T16:32:08.037Z,99391.13
2024-03-01T16:34:34.459Z,99380.56
2024-03-01T16:37:01.759Z,99388.88
2024-03-01T16:39:35.787Z,99381.41
2024-03-01T16:42:04.540Z,99388.06
2024-03-01T16:44:44.063Z,99391.47
2024-03-01T16:47:20.861Z,99389.00
2024-03-01T16:49:47.420Z,99394.75
2024-03-01T16:52:15.719Z,99396.97
2024-03-01T16:54:46.688Z,99390.06
2024-03-01T16:57:26.931Z,99388.28
2024-03-01T16:59:54.418Z,99387.91
2024-03-01T17:02:37.702Z,99384.03
2024-03-01T17:05:33.007Z,99377.09
2024-03-01T17:07:59.728Z,99368.16
2024-03-01T17:10:35.652Z,99372.38
2024-03-01T17:13:03.874Z,99356.06
2024-03-01T17:15:31.050Z,99359.91
2024-03-01T17:17:57.716Z,99363.31
2024-03-01T17:20:25.434Z,99357.56
2024-03-01T17:22:53.103Z,99353.31
2024-03-01T17:25:20.436Z,99353.31
2024-03-01T17:30:14.824Z,99353.81
2024-03-01T17:32:41.544Z,99350.75
2024-03-01T17:35:07.954Z,99349.47
2024-03-01T17:37:34.723Z,99354.72
2024-03-01T17:40:01.180Z,99348.75
2024-03-01T17:45:05.723Z,99348.84
2024-03-01T17:47:33.218Z,99351.53
2024-03-01T17:49:59.889Z,99354.44
2024-03-01T17:52:26.461Z,99360.06
2024-03-01T17:54:52.855Z,99354.66
2024-03-01T17:57:19.193Z,99362.16
2024-03-01T17:59:45.862Z,99353.47
2024-03-01T18:02:12.346Z,99356.03
2024-03-01T18:04:39.718Z,99359.75
2024-03-01T18:07:06.325Z,99352.97
2024-03-01T18:09:32.709Z,99347.59
2024-03-01T18:11:59.156Z,99346.06
2024-03-01T18:14:25.934Z,99342.59
2024-03-01T18:16:52.617Z,99352.72
2024-03-01T18:19:19.184Z,99361.03
2024-03-01T18:21:46.076Z,99343.47
2024-03-01T18:24:15.440Z,99349.31
2024-03-01T18:26:43.045Z,99341.03
2024-03-01T18:29:09.940Z,99338.78
2024-03-01T18:31:36.832Z,99324.06
2024-03-01T18:34:06.223Z,99341.03
2024-03-01T18:36:32.712Z,99341.03
2024-03-01T18:38:59.277Z,99330.34
2024-03-01T18:41:25.652Z,99331.00
2024-03-01T18:43:56.582Z,99330.63
2024-03-01T18:46:23.521Z,99335.66
2024-03-01T18:48:51.033Z,99334.00
2024-03-01T18:51:18.409Z,99322.22
2024-03-01T18:53:44.808Z,99323.25
2024-03-01T18:56:11.174Z,99317.50
2024-03-01T18:58:38.108Z,99328.88
2024-03-01T19:01:10.687Z,99323.09
2024-03-01T19:03:41.923Z,99307.06
2024-03-01T19:06:09.416Z,99318.63
2024-03-01T19:08:35.900Z,99315.47
2024-03-01T19:11:02.318Z,99315.47
2024-03-01T19:13:32.178Z,99305.56
2024-03-01T19:15:58.540Z,99310.31
2024-03-01T19:18:24.917Z,99302.50
2024-03-01T19:20:51.292Z,99305.84
2024-03-01T19:23:17.667Z,99313.31
2024-03-01T19:25:46.968Z,99314.38
2024-03-01T19:28:13.405Z,99306.38
2024-03-01T19:30:39.788Z,99301.22
2024-03-01T19:33:08.476Z,99303.69
2024-03-01T19:35:34.842Z,99305.78
2024-03-01T19:38:01.321Z,99310.75
2024-03-01T19:40:27.727Z,99312.25
2024-03-01T19:42:54.158Z,99299.66
2024-03-01T19:45:20.493Z,99298.00
2024-03-01T19:47:46.942Z,99290.38
2024-03-01T19:50:13.343Z,99297.63
2024-03-01T19:52:40.280Z,99295.41
2024-03-01T19:55:07.038Z,99303.31
2024-03-01T19:57:33.412Z,99310.75
2024-03-01T19:59:59.817Z,99313.66
2024-03-01T20:02:26.529Z,99310.38
2024-03-01T20:04:52.872Z,99303.34
2024-03-01T20:07:19.283Z,99311.41
2024-03-01T20:09:45.811Z,99315.34
2024-03-01T20:12:12.169Z,99313.13
2024-03-01T20:14:38.556Z,99312.09
2024-03-01T20:17:04.915Z,99322.00
2024-03-01T20:19:31.286Z,99317.47
2024-03-01T20:21:57.636Z,99316.84
2024-03-01T20:24:24.077Z,99307.59
2024-03-01T20:26:52.262Z,99310.94
2024-03-01T20:29:19.269Z,99314.28
2024-03-01T20:31:45.783Z,99321.31
2024-03-01T20:34:12.338Z,99323.38
2024-03-01T20:36:38.845Z,99318.25
2024-03-01T20:39:06.338Z,99315.34
2024-03-01T20:41:33.332Z,99316.97
2024-03-01T20:43:59.719Z,99316.97
2024-03-01T20:46:26.164Z,99314.69
2024-03-01T20:48:53.905Z,99309.50
2024-03-01T20:51:20.526Z,99306.66
2024-03-01T20:53:46.894Z,99308.09
2024-03-01T20:56:13.338Z,99307.88
2024-03-01T20:58:39.793Z,99304.59
2024-03-01T21:01:07.907Z,99308.09
2024-03-01T21:03:34.345Z,99297.56
2024-03-01T21:06:00.780Z,99303.38
2024-03-01T21:08:27.192Z,99307.78
2024-03-01T21:10:54.494Z,99302.63
2024-03-01T21:13:21.024Z,99299.34
2024-03-01T21:15:47.633Z,99302.03
2024-03-01T21:18:14.836Z,99305.97
2024-03-01T21:20:41.267Z,99302.28
2024-03-01T21:23:07.958Z,99309.31
2024-03-01T21:25:34.392Z,99297.13
2024-03-01T21:28:00.742Z,99291.94
2024-03-01T21:30:29.472Z,99302.91
2024-03-01T21:32:56.530Z,99299.00
2024-03-01T21:35:22.928Z,99305.88
2024-03-01T21:37:49.301Z,99299.88
2024-03-01T21:40:23.598Z,99299.06
2024-03-01T21:42:50.304Z,99303.22
2024-03-01T21:45:17.150Z,99308.22
2024-03-01T21:47:44.448Z,99302.44
2024-03-01T21:50:10.957Z,99302.63
2024-03-01T21:52:37.346Z,99306.13
2024-03-01T21:55:04.131Z,99302.69
2024-03-01T21:57:31.786Z,99296.91
2024-03-01T21:59:58.255Z,99295.72
2024-03-01T22:02:24.684Z,99307.25
2024-03-01T22:04:51.060Z,99296.97
2024-03-01T22:07:17.492Z,99298.81
2024-03-01T22:09:43.879Z,99293.66
2024-03-01T22:12:10.452Z,99302.16
2024-03-01T22:14:36.827Z,99306.28
2024-03-01T22:17:03.363Z,99302.19
2024-03-01T22:19:29.821Z,99300.75
2024-03-01T22:21:56.221Z,99306.56
2024-03-01T22:24:22.635Z,99307.41
2024-03-01T22:26:49.313Z,99308.03
2024-03-01T22:29:15.881Z,99301.81
2024-03-01T22:31:43.615Z,99301.66
2024-03-01T22:34:10.767Z,99303.34
2024-03-01T22:36:37.205Z,99298.59
2024-03-01T22:39:04.514Z,99297.53
2024-03-01T22:41:30.997Z,99293.22
2024-03-01T22:43:57.917Z,99297.34
2024-03-01T22:46:24.496Z,99306.38
2024-03-01T22:48:50.949Z,99298.13
2024-03-01T22:51:17.747Z,99296.03
2024-03-01T22:53:44.121Z,99280.53
2024-03-01T22:56:20.763Z,99285.16
2024-03-01T22:58:50.542Z,99283.50
2024-03-01T23:01:23.538Z,99272.75
2024-03-01T23:03:51.091Z,99265.53
2024-03-01T23:06:22.174Z,99271.72
2024-03-01T23:09:01.490Z,99266.34
2024-03-01T23:11:46.662Z,99252.72
2024-03-01T23:14:21.926Z,99251.06
2024-03-01T23:16:48.667Z,99248.59
2024-03-01T23:19:15.500Z,99250.28
2024-03-01T23:21:42.313Z,99242.84
2024-03-01T23:24:08.682Z,99245.31
2024-03-01T23:26:35.045Z,99256.31
2024-03-01T23:29:01.424Z,99250.72
2024-03-01T23:31:27.791Z,99258.34
2024-03-01T23:33:54.239Z,99256.72
2024-03-01T23:36:20.723Z,99253.88
2024-03-01T23:38:47.107Z,99253.47
2024-03-01T23:41:14.178Z,99254.72
2024-03-01T23:43:40.614Z,99254.34
2024-03-01T23:46:07.016Z,99254.16
2024-03-01T23:48:33.630Z,99257.66
2024-03-01T23:51:00.195Z,99261.41
2024-03-01T23:53:26.677Z,99249.41
2024-03-01T23:55:53.945Z,99256.84
2024-03-01T23:58:20.398Z,99260.72
